createdAt,value
2018-08-10T00:02:53.218Z,99282.31
2018-08-10T00:05:55.594Z,99277.55
2018-08-10T00:08:57.860Z,99296.25
2018-08-10T00:13:03.291Z,99291.98
2018-08-10T00:16:05.669Z,99304.38
2018-08-10T00:19:08.201Z,99304.05
2018-08-10T00:22:10.583Z,99309.72
2018-08-10T00:25:15.452Z,99320.77
2018-08-10T00:28:17.697Z,99329.08
2018-08-10T00:31:20.752Z,99330.56
2018-08-10T00:34:22.942Z,99333.19
2018-08-10T00:37:25.203Z,99336.47
2018-08-10T00:40:28.041Z,99340.31
2018-08-10T00:43:30.280Z,99336.55
2018-08-10T00:46:32.699Z,99344.07
2018-08-10T00:49:34.950Z,99336.75
2018-08-10T00:52:38.990Z,99348.89
2018-08-10T00:55:47.868Z,99351.99
2018-08-10T00:58:50.145Z,99361.13
2018-08-10T01:01:52.414Z,99373.77
2018-08-10T01:04:54.806Z,99378.62
2018-08-10T01:07:57.054Z,99379.69
2018-08-10T01:10:59.367Z,99378.73
2018-08-10T01:14:01.597Z,99380.56
2018-08-10T01:17:03.927Z,99385.66
2018-08-10T01:20:12.732Z,99383.71
2018-08-10T01:23:15.883Z,99406.99
2018-08-10T01:26:18.148Z,99392.69
2018-08-10T01:29:20.474Z,99393.76
2018-08-10T01:32:22.759Z,99400.59
2018-08-10T01:35:25.616Z,99399.02
2018-08-10T01:38:27.876Z,99396.89
2018-08-10T01:41:30.150Z,99398.08
2018-08-10T01:44:32.339Z,99400.83
2018-08-10T01:47:34.684Z,99410.73
2018-08-10T01:50:36.991Z,99422.69
2018-08-10T01:53:39.366Z,99437.01
2018-08-10T01:56:41.659Z,99443.88
2018-08-10T01:59:43.907Z,99447.32
2018-08-10T02:02:46.180Z,99450.00
2018-08-10T02:05:48.349Z,99459.44
2018-08-10T02:08:50.586Z,99458.03
2018-08-10T02:11:52.853Z,99458.40
2018-08-10T02:14:55.093Z,99467.25
2018-08-10T02:17:57.387Z,99477.22
2018-08-10T02:20:59.683Z,99480.25
2018-08-10T02:24:01.844Z,99480.89
2018-08-10T02:27:04.054Z,99485.20
2018-08-10T02:30:07.936Z,99483.30
2018-08-10T02:33:10.202Z,99479.39
2018-08-10T02:36:12.504Z,99487.67
2018-08-10T02:39:14.724Z,99487.82
2018-08-10T02:42:17.095Z,99497.30
2018-08-10T02:45:20.371Z,99502.24
2018-08-10T02:48:22.583Z,99502.77
2018-08-10T02:51:24.890Z,99509.21
2018-08-10T02:54:27.090Z,99503.23
2018-08-10T02:57:29.286Z,99507.03
2018-08-10T03:00:31.596Z,99502.08
2018-08-10T03:03:33.759Z,99503.02
2018-08-10T03:06:36.037Z,99509.17
2018-08-10T03:09:38.234Z,99508.14
2018-08-10T03:12:40.566Z,99513.47
2018-08-10T03:15:42.776Z,99518.91
2018-08-10T03:18:45.025Z,99519.23
2018-08-10T03:21:47.332Z,99535.82
2018-08-10T03:24:49.653Z,99537.95
2018-08-10T03:27:51.934Z,99535.36
2018-08-10T03:30:54.248Z,99543.05
2018-08-10T03:33:56.433Z,99544.86
2018-08-10T03:36:58.605Z,99548.77
2018-08-10T03:40:00.774Z,99556.80
2018-08-10T03:43:03.013Z,99558.16
2018-08-10T03:46:05.248Z,99561.92
2018-08-10T03:49:07.518Z,99567.48
2018-08-10T03:52:09.792Z,99571.09
2018-08-10T03:55:12.251Z,99582.27
2018-08-10T03:58:17.153Z,99590.27
2018-08-10T04:01:19.397Z,99590.79
2018-08-10T04:04:21.635Z,99601.44
2018-08-10T04:07:24.669Z,99609.00
2018-08-10T04:10:26.912Z,99608.81
2018-08-10T04:13:29.227Z,99614.89
2018-08-10T04:16:31.537Z,99620.15
2018-08-10T04:19:33.844Z,99612.42
2018-08-10T04:22:36.175Z,99617.00
2018-08-10T04:25:38.372Z,99617.66
2018-08-10T04:28:40.646Z,99620.31
2018-08-10T04:31:42.893Z,99630.45
2018-08-10T04:34:45.172Z,99638.15
2018-08-10T04:37:47.384Z,99635.28
2018-08-10T04:40:49.641Z,99643.16
2018-08-10T04:43:51.873Z,99639.19
2018-08-10T04:46:54.173Z,99640.20
2018-08-10T04:49:56.343Z,99638.88
2018-08-10T04:52:58.604Z,99637.66
2018-08-10T04:56:00.890Z,99644.81
2018-08-10T04:59:03.176Z,99654.72
2018-08-10T05:02:06.135Z,99647.55
2018-08-10T05:05:09.440Z,99657.44
2018-08-10T05:08:11.715Z,99648.60
2018-08-10T05:11:14.079Z,99647.98
2018-08-10T05:14:16.389Z,99652.23
2018-08-10T05:17:18.706Z,99656.09
2018-08-10T05:20:21.041Z,99662.89
2018-08-10T05:23:23.265Z,99662.89
2018-08-10T05:26:25.488Z,99663.92
2018-08-10T05:29:28.167Z,99679.13
2018-08-10T05:32:30.414Z,99678.19
2018-08-10T05:35:32.635Z,99684.32
2018-08-10T05:38:35.046Z,99695.63
2018-08-10T05:41:37.462Z,99689.02
2018-08-10T05:44:39.681Z,99688.94
2018-08-10T05:47:42.013Z,99689.59
2018-08-10T05:50:44.651Z,99696.92
2018-08-10T05:53:46.875Z,99706.72
2018-08-10T05:56:49.070Z,99712.98
2018-08-10T05:59:51.226Z,99714.69
2018-08-10T06:02:53.437Z,99713.78
2018-08-10T06:05:55.732Z,99722.25
2018-08-10T06:08:57.967Z,99717.20
2018-08-10T06:12:00.349Z,99726.44
2018-08-10T06:15:02.557Z,99727.83
2018-08-10T06:18:04.819Z,99730.92
2018-08-10T06:21:08.622Z,99721.98
2018-08-10T06:24:10.845Z,99731.48
2018-08-10T06:27:13.001Z,99733.70
2018-08-10T06:30:15.234Z,99738.84
2018-08-10T06:33:17.441Z,99737.20
2018-08-10T06:36:19.709Z,99739.26
2018-08-10T06:39:22.016Z,99741.14
2018-08-10T06:42:24.250Z,99749.55
2018-08-10T06:45:26.422Z,99751.22
2018-08-10T06:48:28.834Z,99757.59
2018-08-10T06:51:31.327Z,99757.09
2018-08-10T06:54:33.549Z,99757.74
2018-08-10T06:57:36.333Z,99759.14
2018-08-10T07:00:38.645Z,99761.12
2018-08-10T07:03:41.376Z,99758.30
2018-08-10T07:06:43.589Z,99763.80
2018-08-10T07:09:45.860Z,99764.18
2018-08-10T07:12:48.053Z,99767.31
2018-08-10T07:15:50.269Z,99764.71
2018-08-10T07:18:52.577Z,99764.59
2018-08-10T07:21:54.848Z,99766.69
2018-08-10T07:24:57.225Z,99764.95
2018-08-10T07:27:59.491Z,99771.13
2018-08-10T07:31:01.762Z,99769.62
2018-08-10T07:34:04.030Z,99769.41
2018-08-10T07:37:06.274Z,99773.66
2018-08-10T07:40:08.619Z,99771.45
2018-08-10T07:43:10.856Z,99770.06
2018-08-10T07:46:13.080Z,99775.96
2018-08-10T07:49:15.411Z,99762.19
2018-08-10T07:52:17.620Z,99775.50
2018-08-10T07:55:19.846Z,99777.16
2018-08-10T07:58:22.680Z,99776.04
2018-08-10T08:01:24.896Z,99777.45
2018-08-10T08:04:27.157Z,99778.52
2018-08-10T08:07:29.508Z,99776.48
2018-08-10T08:10:31.723Z,99773.52
2018-08-10T08:13:34.089Z,99781.14
2018-08-10T08:16:36.581Z,99775.77
2018-08-10T08:19:38.966Z,99777.80
2018-08-10T08:22:41.295Z,99783.11
2018-08-10T08:25:44.298Z,99778.34
2018-08-10T08:28:46.591Z,99776.58
2018-08-10T08:31:52.159Z,99770.66
2018-08-10T08:34:54.646Z,99774.83
2018-08-10T08:39:05.548Z,99786.09
2018-08-10T08:42:07.866Z,99786.11
2018-08-10T08:45:50.784Z,99789.73
2018-08-10T08:48:52.776Z,99772.27
2018-08-10T08:51:55.061Z,99775.16
2018-08-10T08:55:09.505Z,99787.23
2018-08-10T08:58:11.788Z,99781.50
2018-08-10T09:01:14.541Z,99787.63
2018-08-10T09:05:00.009Z,99787.47
2018-08-10T09:08:04.977Z,99785.17
2018-08-10T09:11:07.947Z,99779.08
2018-08-10T09:14:42.198Z,99781.53
2018-08-10T09:17:44.579Z,99789.03
2018-08-10T09:20:46.890Z,99772.79
2018-08-10T09:23:49.127Z,99774.48
2018-08-10T09:26:51.439Z,99781.56
2018-08-10T09:29:54.519Z,99769.78
2018-08-10T09:32:56.791Z,99767.67
2018-08-10T09:35:59.042Z,99789.08
2018-08-10T09:39:01.320Z,99784.62
2018-08-10T09:42:07.548Z,99773.04
2018-08-10T09:45:10.560Z,99782.75
2018-08-10T09:48:12.841Z,99785.42
2018-08-10T09:51:15.045Z,99779.59
2018-08-10T09:54:17.415Z,99788.47
2018-08-10T09:57:19.600Z,99767.80
2018-08-10T10:00:27.594Z,99778.92
2018-08-10T10:03:30.929Z,99777.45
2018-08-10T10:06:33.283Z,99783.98
2018-08-10T10:09:35.524Z,99791.12
2018-08-10T10:12:37.808Z,99780.07
2018-08-10T10:15:40.290Z,99769.03
2018-08-10T10:18:42.628Z,99775.67
2018-08-10T10:21:44.820Z,99775.02
2018-08-10T10:24:47.084Z,99787.36
2018-08-10T10:27:49.450Z,99787.59
2018-08-10T10:30:51.766Z,99774.66
2018-08-10T10:33:53.963Z,99761.48
2018-08-10T10:36:56.188Z,99768.35
2018-08-10T10:40:01.733Z,99780.23
2018-08-10T10:43:03.994Z,99776.67
2018-08-10T10:46:06.448Z,99770.24
2018-08-10T10:49:08.664Z,99766.45
2018-08-10T10:52:13.027Z,99766.91
2018-08-10T10:55:15.597Z,99768.81
2018-08-10T10:58:17.848Z,99768.31
2018-08-10T11:01:20.060Z,99771.95
2018-08-10T11:04:22.366Z,99774.02
2018-08-10T11:07:24.709Z,99760.72
2018-08-10T11:10:26.973Z,99765.24
2018-08-10T11:13:29.168Z,99746.62
2018-08-10T11:17:06.093Z,99742.87
2018-08-10T11:20:10.643Z,99748.14
2018-08-10T11:23:12.877Z,99731.30
2018-08-10T11:26:15.145Z,99744.17
2018-08-10T11:29:17.386Z,99724.39
2018-08-10T11:32:19.677Z,99709.92
2018-08-10T11:35:22.058Z,99704.37
2018-08-10T11:38:24.448Z,99693.34
2018-08-10T11:41:26.876Z,99733.70
2018-08-10T11:44:29.219Z,99707.97
2018-08-10T11:47:31.442Z,99708.72
2018-08-10T11:50:33.744Z,99699.62
2018-08-10T11:53:36.071Z,99719.97
2018-08-10T11:56:38.424Z,99703.59
2018-08-10T11:59:40.698Z,99700.50
2018-08-10T12:02:43.189Z,99694.95
2018-08-10T12:05:45.410Z,99682.48
2018-08-10T12:08:47.676Z,99711.42
2018-08-10T12:11:50.767Z,99703.65
2018-08-10T12:14:52.988Z,99663.24
2018-08-10T12:17:55.250Z,99668.46
2018-08-10T12:20:57.722Z,99664.38
2018-08-10T12:24:00.192Z,99643.06
2018-08-10T12:27:02.474Z,99640.85
2018-08-10T12:30:06.075Z,99618.81
2018-08-10T12:33:08.263Z,99608.33
2018-08-10T12:36:10.628Z,99650.02
2018-08-10T12:39:13.878Z,99652.83
2018-08-10T12:42:16.196Z,99690.48
2018-08-10T12:45:18.446Z,99687.64
2018-08-10T12:48:20.697Z,99686.86
2018-08-10T12:51:23.026Z,99661.20
2018-08-10T12:54:25.252Z,99635.17
2018-08-10T12:57:28.278Z,99696.05
2018-08-10T13:00:30.559Z,99716.23
2018-08-10T13:03:32.861Z,99719.16
2018-08-10T13:06:35.189Z,99682.66
2018-08-10T13:09:37.455Z,99621.05
2018-08-10T13:12:39.735Z,99596.81
2018-08-10T13:15:42.144Z,99633.63
2018-08-10T13:18:44.408Z,99606.39
2018-08-10T13:21:46.720Z,99603.55
2018-08-10T13:24:48.953Z,99621.52
2018-08-10T13:27:51.152Z,99650.81
2018-08-10T13:30:53.405Z,99673.78
2018-08-10T13:33:55.692Z,99692.34
2018-08-10T13:36:57.960Z,99684.39
2018-08-10T13:40:01.099Z,99683.05
2018-08-10T13:43:03.435Z,99668.81
2018-08-10T13:46:05.737Z,99726.35
2018-08-10T13:49:08.079Z,99719.50
2018-08-10T13:52:10.407Z,99684.45
2018-08-10T13:55:15.755Z,99660.27
2018-08-10T13:58:18.079Z,99654.31
2018-08-10T14:01:20.441Z,99689.16
2018-08-10T14:04:22.826Z,99664.56
2018-08-10T14:07:25.492Z,99572.39
2018-08-10T14:10:27.798Z,99634.13
2018-08-10T14:13:29.997Z,99628.90
2018-08-10T14:16:37.162Z,99561.34
2018-08-10T14:19:39.440Z,99612.72
2018-08-10T14:22:41.735Z,99538.48
2018-08-10T14:25:43.955Z,99527.38
2018-08-10T14:28:46.194Z,99569.13
2018-08-10T14:31:48.490Z,99542.45
2018-08-10T14:34:50.785Z,99598.45
2018-08-10T14:37:53.039Z,99587.66
2018-08-10T14:40:55.323Z,99472.56
2018-08-10T14:43:58.297Z,99507.41
2018-08-10T14:47:00.542Z,99503.77
2018-08-10T14:50:04.298Z,99528.20
2018-08-10T14:53:13.426Z,99486.47
2018-08-10T14:56:15.666Z,99513.95
2018-08-10T14:59:17.947Z,99482.62
2018-08-10T15:02:20.401Z,99452.98
2018-08-10T15:05:22.752Z,99449.53
2018-08-10T15:08:24.975Z,99465.08
2018-08-10T15:11:27.230Z,99492.73
2018-08-10T15:14:29.538Z,99508.81
2018-08-10T15:17:31.817Z,99472.48
2018-08-10T15:20:34.032Z,99568.76
2018-08-10T15:23:36.480Z,99620.70
2018-08-10T15:26:38.899Z,99666.90
2018-08-10T15:29:41.170Z,99678.82
2018-08-10T15:32:43.600Z,99697.47
2018-08-10T15:35:45.865Z,99689.84
2018-08-10T15:38:48.172Z,99630.00
2018-08-10T15:41:50.444Z,99503.70
2018-08-10T15:44:52.738Z,99516.06
2018-08-10T15:47:55.072Z,99446.27
2018-08-10T15:50:57.539Z,99484.86
2018-08-10T15:53:59.829Z,99553.27
2018-08-10T15:57:02.301Z,99599.33
2018-08-10T16:00:12.446Z,99670.61
2018-08-10T16:03:14.777Z,99644.61
2018-08-10T16:06:17.012Z,99563.66
2018-08-10T16:09:19.341Z,99510.85
2018-08-10T16:12:21.588Z,99475.32
2018-08-10T16:15:23.917Z,99454.89
2018-08-10T16:18:26.172Z,99439.42
2018-08-10T16:21:28.502Z,99393.06
2018-08-10T16:24:30.849Z,99459.16
2018-08-10T16:27:33.130Z,99420.09
2018-08-10T16:30:35.453Z,99414.78
2018-08-10T16:33:37.733Z,99575.66
2018-08-10T16:36:40.047Z,99604.48
2018-08-10T16:39:42.531Z,99606.75
2018-08-10T16:42:44.928Z,99568.38
2018-08-10T16:45:47.201Z,99511.32
2018-08-10T16:48:49.527Z,99586.67
2018-08-10T16:51:51.927Z,99687.06
2018-08-10T16:54:54.299Z,99736.52
2018-08-10T16:57:56.645Z,99749.91
2018-08-10T17:00:58.895Z,99676.70
2018-08-10T17:04:01.360Z,99729.73
2018-08-10T17:07:03.650Z,99708.12
2018-08-10T17:10:06.568Z,99717.00
2018-08-10T17:13:08.834Z,99711.30
2018-08-10T17:16:12.241Z,99682.39
2018-08-10T17:19:14.536Z,99701.67
2018-08-10T17:22:16.852Z,99669.02
2018-08-10T17:25:19.968Z,99662.95
2018-08-10T17:28:22.495Z,99638.43
2018-08-10T17:31:24.775Z,99613.69
2018-08-10T17:34:28.072Z,99579.19
2018-08-10T17:37:30.500Z,99525.73
2018-08-10T17:40:32.994Z,99549.25
2018-08-10T17:43:35.250Z,99524.36
2018-08-10T17:46:37.629Z,99533.75
2018-08-10T17:49:40.032Z,99517.41
2018-08-10T17:52:44.927Z,99567.06
2018-08-10T17:55:47.142Z,99605.05
2018-08-10T17:58:49.589Z,99613.52
2018-08-10T18:01:51.796Z,99619.30
2018-08-10T18:04:54.232Z,99627.57
2018-08-10T18:07:56.651Z,99613.48
2018-08-10T18:10:58.885Z,99608.52
2018-08-10T18:14:01.548Z,99610.56
2018-08-10T18:17:03.927Z,99611.03
2018-08-10T18:20:09.332Z,99609.54
2018-08-10T18:23:11.581Z,99618.02
2018-08-10T18:26:13.878Z,99595.91
2018-08-10T18:29:16.929Z,99596.64
2018-08-10T18:32:22.667Z,99607.94
2018-08-10T18:35:25.210Z,99622.72
2018-08-10T18:38:28.343Z,99616.73
2018-08-10T18:41:30.862Z,99614.67
2018-08-10T18:44:33.082Z,99620.77
2018-08-10T18:47:35.445Z,99619.44
2018-08-10T18:50:37.746Z,99613.20
2018-08-10T18:53:40.600Z,99623.42
2018-08-10T18:56:42.796Z,99635.98
2018-08-10T18:59:45.046Z,99627.59
2018-08-10T19:02:47.325Z,99629.55
2018-08-10T19:05:50.720Z,99631.14
2018-08-10T19:08:53.049Z,99630.11
2018-08-10T19:11:55.267Z,99630.80
2018-08-10T19:14:57.595Z,99634.19
2018-08-10T19:17:59.819Z,99640.36
2018-08-10T19:21:02.096Z,99633.53
2018-08-10T19:24:04.344Z,99643.40
2018-08-10T19:27:06.637Z,99645.56
2018-08-10T19:33:25.425Z,99654.46
2018-08-10T19:36:28.297Z,99655.59
2018-08-10T19:39:30.626Z,99655.72
2018-08-10T19:42:32.831Z,99659.57
2018-08-10T19:45:35.070Z,99659.19
2018-08-10T19:48:37.400Z,99659.95
2018-08-10T19:51:39.544Z,99649.39
2018-08-10T19:54:41.927Z,99655.61
2018-08-10T19:57:44.185Z,99659.50
2018-08-10T20:00:46.495Z,99666.41
2018-08-10T20:03:48.769Z,99661.59
2018-08-10T20:06:51.012Z,99663.31
2018-08-10T20:09:53.272Z,99662.56
2018-08-10T20:12:55.671Z,99662.42
2018-08-10T20:15:58.041Z,99657.36
2018-08-10T20:19:00.541Z,99660.41
2018-08-10T20:22:02.900Z,99655.45
2018-08-10T20:25:06.230Z,99653.70
2018-08-10T20:28:08.603Z,99660.23
2018-08-10T20:31:12.012Z,99658.02
2018-08-10T20:34:14.269Z,99657.55
2018-08-10T20:37:16.529Z,99665.28
2018-08-10T20:40:19.250Z,99662.05
2018-08-10T20:43:21.528Z,99667.04
2018-08-10T20:46:23.820Z,99661.95
2018-08-10T20:49:26.165Z,99663.63
2018-08-10T20:52:28.458Z,99659.22
2018-08-10T20:55:30.835Z,99659.33
2018-08-10T20:58:33.073Z,99657.82
2018-08-10T21:01:35.336Z,99655.25
2018-08-10T21:04:37.613Z,99657.34
2018-08-10T21:07:39.985Z,99659.12
2018-08-10T21:10:42.307Z,99655.15
2018-08-10T21:13:45.278Z,99648.38
2018-08-10T21:16:47.664Z,99654.83
2018-08-10T21:19:50.116Z,99654.08
2018-08-10T21:22:52.383Z,99651.47
2018-08-10T21:25:54.672Z,99652.95
2018-08-10T21:28:56.959Z,99652.11
2018-08-10T21:31:59.277Z,99648.91
2018-08-10T21:35:02.865Z,99647.41
2018-08-10T21:38:05.190Z,99652.21
2018-08-10T21:41:07.383Z,99645.22
2018-08-10T21:44:09.831Z,99651.10
2018-08-10T21:47:12.080Z,99654.91
2018-08-10T21:50:14.802Z,99657.94
2018-08-10T21:53:17.128Z,99654.59
2018-08-10T21:56:19.760Z,99659.25
2018-08-10T21:59:22.024Z,99645.70
2018-08-10T22:02:25.185Z,99649.51
2018-08-10T22:05:27.500Z,99652.95
2018-08-10T22:08:30.523Z,99647.05
2018-08-10T22:11:32.782Z,99644.72
2018-08-10T22:16:47.972Z,99647.98
2018-08-10T22:19:50.214Z,99642.06
2018-08-10T22:22:52.503Z,99641.09
2018-08-10T22:25:55.116Z,99639.75
2018-08-10T22:28:57.369Z,99642.46
2018-08-10T22:31:59.698Z,99642.71
2018-08-10T22:35:01.947Z,99642.44
2018-08-10T22:38:04.172Z,99646.59
2018-08-10T22:41:06.497Z,99645.97
2018-08-10T22:44:08.698Z,99651.23
2018-08-10T22:47:11.016Z,99642.16
2018-08-10T22:50:13.221Z,99653.23
2018-08-10T22:53:15.676Z,99648.09
2018-08-10T22:56:17.933Z,99653.89
2018-08-10T22:59:20.183Z,99651.44
2018-08-10T23:02:22.493Z,99650.64
2018-08-10T23:05:24.726Z,99651.80
2018-08-10T23:08:27.137Z,99649.81
2018-08-10T23:11:29.408Z,99647.03
2018-08-10T23:14:32.500Z,99639.34
2018-08-10T23:17:34.947Z,99641.45
2018-08-10T23:20:37.228Z,99637.34
2018-08-10T23:23:39.477Z,99642.94
2018-08-10T23:26:41.718Z,99630.79
2018-08-10T23:29:44.065Z,99626.84
2018-08-10T23:32:46.284Z,99628.16
2018-08-10T23:35:48.629Z,99628.94
2018-08-10T23:38:50.876Z,99618.89
2018-08-10T23:41:53.184Z,99619.10
2018-08-10T23:44:55.575Z,99612.20
2018-08-10T23:47:57.893Z,99606.78
2018-08-10T23:51:00.930Z,99609.11
2018-08-10T23:54:03.585Z,99604.08
2018-08-10T23:57:05.844Z,99602.53
